Retsof, New York
Current Conditions -  °F | °C
As of 1:54 AM on Sunday 23 Nov 2014 (Local Time) from KDSV Reporting Station
Light Rain Light Rain  
Wind Chill: 45°   Ceiling: 6000
Heat Index: 45°   Visibility: 10mi
Dew Point: 39°   Wind: 3mph
Humidity: 80%   Direction: NA
Pressure: 30.03"   Gusts: NA
Location:  42.84°N, 77.88°W
Report Text: KDSV 230654Z AUTO VRB03KT 10SM -RA SCT043 OVC060 07/04 A3003 RMK AO2 RAB47 SLP183 P0000 T00720039
Loading
Personal Weather Stations






























Interactive Weather Map New forecast layout! Learn more

10-Day Weather Forecast

Advertisements
Track Severe Weather on mobile